Riverside, United Kingdom
Current Conditions -  °F | °C
As of 6:50 AM on Friday 28 Nov 2014 (Local Time) from EGLC Reporting Station
Broken Clouds Broken Clouds  
Wind Chill: 52°   Ceiling: 1800
Heat Index: 52°   Visibility: 4mi
Dew Point: 50°   Wind: 10mph
Humidity: 94%   Direction: 80°E
Pressure: 29.59"   Gusts: NA
Location:  51.49°N, 0.09°E
Report Text: EGLC 280650Z 08009KT 7000 FEW005 BKN018 11/10 Q1002
Loading
Personal Weather Stations






























Interactive Weather Map New forecast layout! Learn more

10-Day Weather Forecast

Advertisements
Track Severe Weather on mobile